createdAt,value
2023-08-15T00:01:51.684Z,26.07
2023-08-15T00:04:18.254Z,26.15
2023-08-15T00:06:44.852Z,26.10
2023-08-15T00:09:11.570Z,26.09
2023-08-15T00:11:38.157Z,26.01
2023-08-15T00:14:04.786Z,26.02
2023-08-15T00:16:31.445Z,26.00
2023-08-15T00:18:58.029Z,26.03
2023-08-15T00:21:25.403Z,25.90
2023-08-15T00:23:52.238Z,25.94
2023-08-15T00:26:18.840Z,25.96
2023-08-15T00:28:45.491Z,25.96
2023-08-15T00:31:12.160Z,25.88
2023-08-15T00:33:39.494Z,25.87
2023-08-15T00:36:06.453Z,25.86
2023-08-15T00:38:33.029Z,25.99
2023-08-15T00:40:59.615Z,25.74
2023-08-15T00:43:26.215Z,25.82
2023-08-15T00:45:53.557Z,25.81
2023-08-15T00:48:21.368Z,25.84
2023-08-15T00:50:50.821Z,25.90
2023-08-15T00:53:19.311Z,25.87
2023-08-15T00:55:46.609Z,25.93
2023-08-15T00:58:13.381Z,25.83
2023-08-15T01:00:40.021Z,25.95
2023-08-15T01:03:06.669Z,25.91
2023-08-15T01:05:33.349Z,25.86
2023-08-15T01:08:00.241Z,25.86
2023-08-15T01:10:27.536Z,25.93
2023-08-15T01:13:23.617Z,25.71
2023-08-15T01:15:52.213Z,25.74
2023-08-15T01:18:29.996Z,25.76
2023-08-15T01:20:57.816Z,25.70
2023-08-15T01:23:54.051Z,25.82
2023-08-15T01:26:20.652Z,25.74
2023-08-15T01:28:47.223Z,25.68
2023-08-15T01:31:30.732Z,25.73
2023-08-15T01:34:02.252Z,25.60
2023-08-15T01:36:34.689Z,25.76
2023-08-15T01:39:04.214Z,25.72
2023-08-15T01:41:34.329Z,25.80
2023-08-15T01:44:01.892Z,25.81
2023-08-15T01:46:28.545Z,25.73
2023-08-15T01:48:55.243Z,25.84
2023-08-15T01:51:21.826Z,25.79
2023-08-15T01:53:48.543Z,25.71
2023-08-15T01:56:15.149Z,25.66
2023-08-15T01:58:41.803Z,25.73
2023-08-15T02:01:08.458Z,25.73
2023-08-15T02:03:35.065Z,25.68
2023-08-15T02:06:01.679Z,25.69
2023-08-15T02:08:28.323Z,25.80
2023-08-15T02:10:55.058Z,25.68
2023-08-15T02:13:21.717Z,25.68
2023-08-15T02:15:48.443Z,25.62
2023-08-15T02:18:15.038Z,25.65
2023-08-15T02:20:41.614Z,25.57
2023-08-15T02:23:08.303Z,25.53
2023-08-15T02:25:34.887Z,25.62
2023-08-15T02:28:01.521Z,25.55
2023-08-15T02:30:28.172Z,25.53
2023-08-15T02:32:54.981Z,25.59
2023-08-15T02:35:21.631Z,25.55
2023-08-15T02:37:48.287Z,25.42
2023-08-15T02:40:14.960Z,25.44
2023-08-15T02:42:41.569Z,25.47
2023-08-15T02:45:08.797Z,25.48
2023-08-15T02:47:35.506Z,25.47
2023-08-15T02:50:02.184Z,25.47
2023-08-15T02:52:28.768Z,25.44
2023-08-15T02:54:55.363Z,25.44
2023-08-15T02:57:22.320Z,25.57
2023-08-15T02:59:49.090Z,25.51
2023-08-15T03:02:18.628Z,25.42
2023-08-15T03:04:45.260Z,25.48
2023-08-15T03:07:11.839Z,25.47
2023-08-15T03:09:38.493Z,25.42
2023-08-15T03:12:05.285Z,25.34
2023-08-15T03:14:31.916Z,25.47
2023-08-15T03:16:58.588Z,25.47
2023-08-15T03:19:25.305Z,25.36
2023-08-15T03:21:53.602Z,25.34
2023-08-15T03:24:20.207Z,25.44
2023-08-15T03:26:46.881Z,25.39
2023-08-15T03:29:13.574Z,25.43
2023-08-15T03:31:40.204Z,25.35
2023-08-15T03:34:07.657Z,25.40
2023-08-15T03:36:34.294Z,25.40
2023-08-15T03:39:00.979Z,25.44
2023-08-15T03:41:27.553Z,25.34
2023-08-15T03:43:54.218Z,25.40
2023-08-15T03:46:22.481Z,25.28
2023-08-15T03:48:49.167Z,25.37
2023-08-15T03:51:27.411Z,25.38
2023-08-15T03:54:02.320Z,25.31
2023-08-15T03:56:28.938Z,25.30
2023-08-15T03:58:55.605Z,25.36
2023-08-15T04:01:22.194Z,25.40
2023-08-15T04:03:50.969Z,25.42
2023-08-15T04:06:17.609Z,25.27
2023-08-15T04:08:44.390Z,25.28
2023-08-15T04:11:10.979Z,25.18
2023-08-15T04:13:37.590Z,25.19
2023-08-15T04:16:04.214Z,25.17
2023-08-15T04:18:31.102Z,25.13
2023-08-15T04:20:57.709Z,25.23
2023-08-15T04:23:25.068Z,25.12
2023-08-15T04:25:51.706Z,25.10
2023-08-15T04:28:18.755Z,25.13
2023-08-15T04:30:46.077Z,25.13
2023-08-15T04:33:12.746Z,25.10
2023-08-15T04:35:40.700Z,25.15
2023-08-15T04:38:07.401Z,25.13
2023-08-15T04:40:44.978Z,25.08
2023-08-15T04:43:12.159Z,25.18
2023-08-15T04:45:42.230Z,25.15
2023-08-15T04:48:10.096Z,25.06
2023-08-15T04:50:37.181Z,25.09
2023-08-15T04:53:03.998Z,25.06
2023-08-15T04:55:30.617Z,25.18
2023-08-15T04:57:57.240Z,25.04
2023-08-15T05:00:23.826Z,25.01
2023-08-15T05:02:50.610Z,25.09
2023-08-15T05:05:17.354Z,24.96
2023-08-15T05:07:44.064Z,25.04
2023-08-15T05:10:10.839Z,24.97
2023-08-15T05:12:37.431Z,25.01
2023-08-15T05:15:04.425Z,25.01
2023-08-15T05:17:32.198Z,25.02
2023-08-15T05:19:59.120Z,25.02
2023-08-15T05:22:26.011Z,25.01
2023-08-15T05:24:52.708Z,24.99
2023-08-15T05:27:19.604Z,24.93
2023-08-15T05:29:46.461Z,24.95
2023-08-15T05:32:13.683Z,24.88
2023-08-15T05:34:40.327Z,24.96
2023-08-15T05:37:06.897Z,25.03
2023-08-15T05:39:33.529Z,24.98
2023-08-15T05:42:00.141Z,24.94
2023-08-15T05:44:27.705Z,24.97
2023-08-15T05:46:54.443Z,25.03
2023-08-15T05:49:21.049Z,25.12
2023-08-15T05:51:47.635Z,24.97
2023-08-15T05:54:14.224Z,24.96
2023-08-15T05:56:41.548Z,25.05
2023-08-15T05:59:08.243Z,25.03
2023-08-15T06:01:34.836Z,24.81
2023-08-15T06:04:02.242Z,24.93
2023-08-15T06:06:29.024Z,25.02
2023-08-15T06:08:56.619Z,25.01
2023-08-15T06:11:23.278Z,24.97
2023-08-15T06:13:51.141Z,24.92
2023-08-15T06:16:19.787Z,24.98
2023-08-15T06:18:46.422Z,25.06
2023-08-15T06:21:13.135Z,24.95
2023-08-15T06:23:39.759Z,24.98
2023-08-15T06:26:06.364Z,24.99
2023-08-15T06:28:32.982Z,24.84
2023-08-15T06:30:59.631Z,24.89
2023-08-15T06:33:26.300Z,25.01
2023-08-15T06:35:53.746Z,24.82
2023-08-15T06:38:20.355Z,24.84
2023-08-15T06:40:46.960Z,24.89
2023-08-15T06:43:13.564Z,24.94
2023-08-15T06:45:40.159Z,24.91
2023-08-15T06:48:07.186Z,24.93
2023-08-15T06:50:34.145Z,24.95
2023-08-15T06:53:00.998Z,24.97
2023-08-15T06:55:27.608Z,24.93
2023-08-15T06:57:54.809Z,25.07
2023-08-15T07:00:21.606Z,24.95
2023-08-15T07:02:48.356Z,24.97
2023-08-15T07:05:15.204Z,24.95
2023-08-15T07:07:41.930Z,24.97
2023-08-15T07:10:09.028Z,24.84
2023-08-15T07:12:38.556Z,24.93
2023-08-15T07:15:05.691Z,24.94
2023-08-15T07:17:32.687Z,24.94
2023-08-15T07:19:59.483Z,24.91
2023-08-15T07:22:26.145Z,24.90
2023-08-15T07:24:52.791Z,24.93
2023-08-15T07:27:19.406Z,24.85
2023-08-15T07:29:46.069Z,24.80
2023-08-15T07:32:13.826Z,24.79
2023-08-15T07:34:40.817Z,24.92
2023-08-15T07:37:07.522Z,24.87
2023-08-15T07:39:34.175Z,24.79
2023-08-15T07:42:01.114Z,24.85
2023-08-15T07:44:28.870Z,24.84
2023-08-15T07:46:55.556Z,24.85
2023-08-15T07:49:22.187Z,24.77
2023-08-15T07:51:49.002Z,24.83
2023-08-15T07:54:15.664Z,24.89
2023-08-15T07:56:42.359Z,24.95
2023-08-15T07:59:08.970Z,24.92
2023-08-15T08:01:35.690Z,24.97
2023-08-15T08:04:02.638Z,24.87
2023-08-15T08:08:59.303Z,25.02
2023-08-15T08:11:25.886Z,24.91
2023-08-15T08:13:52.465Z,24.95
2023-08-15T08:16:19.414Z,24.97
2023-08-15T08:18:46.795Z,25.01
2023-08-15T08:21:13.461Z,25.05
2023-08-15T08:23:40.126Z,25.17
2023-08-15T08:26:06.731Z,25.18
2023-08-15T08:28:33.327Z,25.12
2023-08-15T08:30:59.994Z,25.23
2023-08-15T08:33:26.800Z,25.32
2023-08-15T08:35:53.392Z,25.29
2023-08-15T08:38:20.901Z,25.27
2023-08-15T08:40:48.689Z,25.34
2023-08-15T08:43:16.946Z,25.25
2023-08-15T08:45:48.679Z,25.31
2023-08-15T08:48:16.592Z,25.33
2023-08-15T08:50:43.298Z,25.41
2023-08-15T08:53:09.905Z,25.44
2023-08-15T08:55:36.567Z,25.51
2023-08-15T08:58:03.961Z,25.49
2023-08-15T09:00:35.124Z,25.48
2023-08-15T09:03:01.947Z,25.47
2023-08-15T09:05:28.968Z,25.60
2023-08-15T09:07:55.817Z,25.67
2023-08-15T09:10:23.196Z,25.64
2023-08-15T09:12:50.909Z,25.75
2023-08-15T09:15:17.522Z,25.59
2023-08-15T09:17:44.249Z,25.68
2023-08-15T09:20:15.161Z,25.65
2023-08-15T09:22:46.409Z,25.74
2023-08-15T09:25:16.216Z,25.73
2023-08-15T09:27:43.531Z,25.71
2023-08-15T09:30:12.574Z,25.82
2023-08-15T09:32:41.328Z,25.69
2023-08-15T09:35:13.291Z,25.83
2023-08-15T09:37:44.850Z,25.73
2023-08-15T09:40:26.540Z,25.77
2023-08-15T09:42:53.668Z,25.81
2023-08-15T09:45:20.436Z,25.76
2023-08-15T09:47:47.640Z,25.81
2023-08-15T09:50:15.172Z,25.79
2023-08-15T09:52:44.184Z,25.86
2023-08-15T09:55:15.622Z,25.89
2023-08-15T09:57:46.865Z,25.86
2023-08-15T10:00:14.587Z,25.93
2023-08-15T10:02:50.232Z,25.93
2023-08-15T10:05:22.563Z,25.91
2023-08-15T10:07:51.137Z,25.93
2023-08-15T10:10:18.390Z,25.94
2023-08-15T10:12:46.749Z,26.00
2023-08-15T10:15:14.157Z,26.04
2023-08-15T10:17:41.524Z,26.06
2023-08-15T10:20:11.956Z,26.06
2023-08-15T10:22:41.182Z,25.96
2023-08-15T10:25:29.380Z,26.02
2023-08-15T10:27:57.022Z,26.00
2023-08-15T10:30:51.515Z,26.08
2023-08-15T10:33:21.129Z,26.06
2023-08-15T10:35:56.795Z,26.05
2023-08-15T10:38:27.330Z,26.08
2023-08-15T10:40:56.455Z,26.10
2023-08-15T10:43:26.907Z,26.18
2023-08-15T10:45:57.905Z,26.18
2023-08-15T10:48:55.854Z,26.17
2023-08-15T10:51:34.239Z,26.20
2023-08-15T10:54:02.125Z,26.21
2023-08-15T10:56:31.656Z,26.30
2023-08-15T10:58:59.371Z,26.25
2023-08-15T11:01:28.021Z,26.24
2023-08-15T11:03:56.423Z,26.24
2023-08-15T11:06:23.249Z,26.31
2023-08-15T11:08:59.923Z,26.34
2023-08-15T11:11:27.567Z,26.31
2023-08-15T11:13:55.081Z,26.27
2023-08-15T11:16:23.430Z,26.32
2023-08-15T11:18:50.637Z,26.40
2023-08-15T11:21:19.052Z,26.35
2023-08-15T11:23:47.820Z,26.36
2023-08-15T11:26:19.652Z,26.42
2023-08-15T11:28:46.355Z,26.54
2023-08-15T11:33:44.299Z,26.53
2023-08-15T11:36:11.360Z,26.60
2023-08-15T11:38:39.406Z,26.54
2023-08-15T11:41:06.363Z,26.52
2023-08-15T11:43:35.710Z,26.57
2023-08-15T11:46:03.581Z,26.51
2023-08-15T11:48:31.844Z,26.52
2023-08-15T11:50:58.922Z,26.57
2023-08-15T11:53:25.768Z,26.62
2023-08-15T11:55:53.301Z,26.65
2023-08-15T11:58:33.074Z,26.68
2023-08-15T12:01:13.018Z,26.73
2023-08-15T12:03:40.193Z,26.68
2023-08-15T12:06:08.964Z,26.67
2023-08-15T12:08:35.642Z,26.69
2023-08-15T12:11:06.929Z,26.69
2023-08-15T12:13:34.392Z,26.74
2023-08-15T12:16:02.158Z,26.71
2023-08-15T12:18:29.848Z,26.77
2023-08-15T12:20:56.467Z,26.77
2023-08-15T12:23:28.785Z,26.91
2023-08-15T12:25:56.240Z,26.91
2023-08-15T12:28:23.206Z,26.83
2023-08-15T12:30:50.009Z,26.80
2023-08-15T12:33:27.607Z,26.73
2023-08-15T12:36:03.379Z,26.81
2023-08-15T12:38:30.310Z,26.82
2023-08-15T12:40:57.155Z,26.83
2023-08-15T12:43:23.780Z,26.86
2023-08-15T12:45:50.548Z,26.98
2023-08-15T12:48:17.251Z,27.01
2023-08-15T12:50:43.881Z,27.04
2023-08-15T12:53:10.562Z,27.17
2023-08-15T12:55:37.297Z,27.09
2023-08-15T12:58:04.314Z,27.05
2023-08-15T13:00:31.251Z,27.10
2023-08-15T13:02:59.101Z,27.14
2023-08-15T13:05:25.950Z,27.09
2023-08-15T13:07:52.785Z,27.13
2023-08-15T13:10:19.366Z,27.10
2023-08-15T13:12:45.996Z,27.08
2023-08-15T13:15:13.748Z,27.13
2023-08-15T13:17:40.392Z,27.18
2023-08-15T13:20:07.817Z,27.19
2023-08-15T13:22:36.338Z,27.24
2023-08-15T13:25:02.970Z,27.20
2023-08-15T13:27:30.732Z,27.15
2023-08-15T13:29:57.682Z,27.25
2023-08-15T13:32:24.594Z,27.19
2023-08-15T13:34:51.409Z,27.12
2023-08-15T13:37:18.041Z,27.13
2023-08-15T13:39:45.002Z,27.11
2023-08-15T13:42:19.978Z,27.14
2023-08-15T13:44:53.694Z,27.16
2023-08-15T13:47:21.164Z,27.22
2023-08-15T13:49:48.054Z,27.19
2023-08-15T13:52:14.675Z,27.21
2023-08-15T13:54:41.270Z,27.21
2023-08-15T13:57:07.947Z,27.22
2023-08-15T13:59:34.536Z,27.23
2023-08-15T14:02:01.207Z,27.28
2023-08-15T14:04:29.229Z,27.28
2023-08-15T14:06:59.878Z,27.29
2023-08-15T14:09:26.509Z,27.26
2023-08-15T14:11:53.130Z,27.29
2023-08-15T14:14:19.726Z,27.31
2023-08-15T14:16:46.536Z,27.31
2023-08-15T14:19:13.684Z,27.30
2023-08-15T14:21:40.283Z,27.32
2023-08-15T14:24:07.089Z,27.30
2023-08-15T14:26:34.062Z,27.33
2023-08-15T14:29:00.706Z,27.35
2023-08-15T14:31:27.750Z,27.32
2023-08-15T14:33:54.357Z,27.35
2023-08-15T14:36:20.974Z,27.39
2023-08-15T14:38:47.877Z,27.38
2023-08-15T14:41:14.495Z,27.34
2023-08-15T14:43:41.089Z,27.34
2023-08-15T14:46:07.688Z,27.37
2023-08-15T14:48:34.321Z,27.50
2023-08-15T14:51:00.904Z,27.48
2023-08-15T14:53:27.599Z,27.51
2023-08-15T14:55:54.203Z,27.38
2023-08-15T14:58:21.296Z,27.46
2023-08-15T15:00:48.055Z,27.40
2023-08-15T15:03:14.829Z,27.38
2023-08-15T15:05:41.483Z,27.45
2023-08-15T15:08:08.646Z,27.45
2023-08-15T15:10:36.297Z,27.46
2023-08-15T15:13:03.536Z,27.47
2023-08-15T15:15:45.847Z,27.56
2023-08-15T15:18:17.402Z,27.59
2023-08-15T15:20:44.074Z,27.63
2023-08-15T15:23:10.756Z,27.69
2023-08-15T15:25:37.364Z,27.73
2023-08-15T15:28:04.149Z,27.70
2023-08-15T15:30:31.100Z,27.77
2023-08-15T15:32:57.960Z,27.73
2023-08-15T15:35:24.620Z,27.79
2023-08-15T15:37:51.195Z,27.87
2023-08-15T15:40:17.828Z,27.73
2023-08-15T15:42:44.445Z,27.67
2023-08-15T15:45:11.173Z,27.71
2023-08-15T15:47:37.802Z,27.63
2023-08-15T15:50:04.532Z,27.70
2023-08-15T15:52:31.346Z,27.73
2023-08-15T15:54:58.040Z,27.77
2023-08-15T15:57:24.674Z,27.70
2023-08-15T15:59:51.272Z,27.70
2023-08-15T16:02:18.091Z,27.67
2023-08-15T16:04:47.660Z,27.66
2023-08-15T16:07:16.654Z,27.65
2023-08-15T16:09:43.354Z,27.67
2023-08-15T16:12:09.958Z,27.67
2023-08-15T16:14:36.558Z,27.65
2023-08-15T16:17:04.592Z,27.66
2023-08-15T16:19:31.214Z,27.70
2023-08-15T16:21:57.825Z,27.70
2023-08-15T16:24:26.977Z,27.63
2023-08-15T16:26:53.653Z,27.59
2023-08-15T16:29:20.276Z,27.64
2023-08-15T16:31:46.945Z,27.61
2023-08-15T16:34:13.541Z,27.66
2023-08-15T16:36:40.171Z,27.65
2023-08-15T16:39:07.592Z,27.65
2023-08-15T16:41:34.234Z,27.66
2023-08-15T16:44:00.881Z,27.69
2023-08-15T16:46:27.567Z,27.70
2023-08-15T16:48:54.216Z,27.72
2023-08-15T16:51:21.106Z,27.72
2023-08-15T16:53:47.809Z,27.69
2023-08-15T16:56:14.404Z,27.69
2023-08-15T16:58:41.037Z,27.74
2023-08-15T17:01:07.642Z,27.67
2023-08-15T17:03:34.332Z,27.79
2023-08-15T17:06:01.046Z,27.76
2023-08-15T17:08:27.949Z,27.84
2023-08-15T17:10:54.546Z,27.87
2023-08-15T17:13:21.168Z,27.87
2023-08-15T17:15:47.827Z,27.88
2023-08-15T17:18:14.532Z,27.90
2023-08-15T17:20:41.132Z,27.95
2023-08-15T17:23:08.550Z,27.97
2023-08-15T17:25:36.270Z,27.96
2023-08-15T17:28:03.001Z,28.01
2023-08-15T17:30:29.614Z,28.04
2023-08-15T17:32:56.266Z,28.01
2023-08-15T17:35:22.895Z,28.00
2023-08-15T17:37:49.495Z,28.00
2023-08-15T17:40:16.146Z,27.84
2023-08-15T17:42:44.169Z,27.86
2023-08-15T17:45:12.891Z,27.86
2023-08-15T17:47:39.567Z,27.89
2023-08-15T17:50:07.135Z,27.90
2023-08-15T17:52:36.535Z,27.90
2023-08-15T17:55:05.147Z,27.97
2023-08-15T17:57:31.982Z,27.89
2023-08-15T17:59:58.630Z,27.89
2023-08-15T18:02:25.428Z,27.84
2023-08-15T18:04:52.385Z,27.84
2023-08-15T18:07:20.161Z,27.92
2023-08-15T18:09:46.746Z,27.93
2023-08-15T18:12:13.370Z,27.87
2023-08-15T18:14:42.092Z,27.84
2023-08-15T18:17:08.677Z,27.86
2023-08-15T18:19:35.308Z,27.86
2023-08-15T18:22:02.143Z,27.88
2023-08-15T18:24:29.586Z,27.85
2023-08-15T18:26:59.433Z,27.87
2023-08-15T18:29:27.416Z,27.88
2023-08-15T18:31:54.109Z,27.88
2023-08-15T18:34:20.731Z,27.87
2023-08-15T18:36:47.324Z,27.85
2023-08-15T18:39:13.908Z,27.85
2023-08-15T18:41:40.482Z,27.78
2023-08-15T18:44:11.215Z,27.81
2023-08-15T18:46:38.274Z,27.85
2023-08-15T18:49:04.895Z,27.87
2023-08-15T18:51:32.820Z,27.83
2023-08-15T18:54:00.003Z,27.82
2023-08-15T18:56:26.609Z,27.86
2023-08-15T18:58:53.190Z,27.83
2023-08-15T19:01:19.946Z,27.76
2023-08-15T19:03:46.682Z,27.76
2023-08-15T19:06:13.365Z,27.75
2023-08-15T19:08:40.006Z,27.76
2023-08-15T19:11:07.186Z,27.77
2023-08-15T19:13:33.776Z,27.74
2023-08-15T19:16:00.406Z,27.73
2023-08-15T19:18:27.676Z,27.65
2023-08-15T19:20:54.354Z,27.64
2023-08-15T19:23:21.096Z,27.63
2023-08-15T19:25:48.135Z,27.63
2023-08-15T19:28:16.444Z,27.64
2023-08-15T19:30:43.850Z,27.59
2023-08-15T19:33:10.884Z,27.59
2023-08-15T19:35:37.645Z,27.59
2023-08-15T19:38:04.348Z,27.54
2023-08-15T19:40:30.957Z,27.50
2023-08-15T19:42:57.573Z,27.47
2023-08-15T19:45:24.204Z,27.48
2023-08-15T19:47:50.854Z,27.48
2023-08-15T19:50:18.247Z,27.42
2023-08-15T19:52:44.845Z,27.45
2023-08-15T19:55:11.798Z,27.41
2023-08-15T19:57:38.935Z,27.41
2023-08-15T20:00:07.906Z,27.38
2023-08-15T20:02:34.558Z,27.38
2023-08-15T20:05:01.254Z,27.33
2023-08-15T20:07:27.929Z,27.38
2023-08-15T20:10:08.346Z,27.32
2023-08-15T20:12:37.246Z,27.32
2023-08-15T20:15:04.412Z,27.33
2023-08-15T20:17:31.091Z,27.32
2023-08-15T20:19:57.793Z,27.37
2023-08-15T20:22:24.822Z,27.38
2023-08-15T20:24:51.743Z,27.38
2023-08-15T20:27:18.412Z,27.39
2023-08-15T20:29:45.194Z,27.39
2023-08-15T20:32:13.403Z,27.38
2023-08-15T20:34:40.040Z,27.37
2023-08-15T20:37:06.766Z,27.40
2023-08-15T20:39:33.357Z,27.33
2023-08-15T20:42:00.346Z,27.29
2023-08-15T20:44:28.280Z,27.30
2023-08-15T20:46:56.123Z,27.30
2023-08-15T20:49:22.887Z,27.28
2023-08-15T20:51:49.476Z,27.29
2023-08-15T20:54:16.216Z,27.23
2023-08-15T20:56:43.292Z,27.17
2023-08-15T20:59:09.928Z,27.14
2023-08-15T21:01:36.509Z,27.15
2023-08-15T21:04:03.318Z,27.06
2023-08-15T21:06:30.001Z,27.06
2023-08-15T21:08:58.287Z,27.07
2023-08-15T21:11:24.900Z,27.08
2023-08-15T21:13:51.492Z,27.07
2023-08-15T21:16:18.204Z,27.00
2023-08-15T21:18:44.812Z,27.03
2023-08-15T21:21:11.441Z,26.92
2023-08-15T21:23:39.647Z,26.93
2023-08-15T21:26:06.230Z,26.96
2023-08-15T21:28:32.900Z,27.00
2023-08-15T21:30:59.535Z,26.93
2023-08-15T21:33:26.186Z,26.91
2023-08-15T21:35:52.804Z,26.98
2023-08-15T21:38:20.047Z,26.93
2023-08-15T21:40:47.545Z,26.82
2023-08-15T21:43:14.243Z,26.77
2023-08-15T21:45:41.138Z,26.82
2023-08-15T21:48:08.342Z,26.76
2023-08-15T21:50:35.821Z,26.67
2023-08-15T21:53:02.590Z,26.71
2023-08-15T21:55:29.206Z,26.73
2023-08-15T21:57:55.800Z,26.68
2023-08-15T22:00:22.443Z,26.73
2023-08-15T22:02:49.288Z,26.70
2023-08-15T22:05:16.050Z,26.75
2023-08-15T22:07:42.684Z,26.67
2023-08-15T22:10:09.504Z,26.52
2023-08-15T22:12:36.121Z,26.65
2023-08-15T22:15:02.809Z,26.73
2023-08-15T22:17:43.066Z,26.68
2023-08-15T22:20:13.048Z,26.64
2023-08-15T22:22:42.217Z,26.64
2023-08-15T22:25:09.237Z,26.65
2023-08-15T22:27:35.844Z,26.65
2023-08-15T22:30:02.858Z,26.62
2023-08-15T22:32:29.917Z,26.62
2023-08-15T22:34:58.133Z,26.58
2023-08-15T22:37:24.984Z,26.60
2023-08-15T22:39:51.858Z,26.50
2023-08-15T22:42:18.659Z,26.51
2023-08-15T22:44:45.247Z,26.40
2023-08-15T22:47:11.889Z,26.50
2023-08-15T22:49:38.647Z,26.50
2023-08-15T22:52:05.240Z,26.51
2023-08-15T22:54:32.992Z,26.39
2023-08-15T22:56:59.575Z,26.50
2023-08-15T22:59:26.364Z,26.61
2023-08-15T23:01:52.935Z,26.64
2023-08-15T23:04:19.583Z,26.56
2023-08-15T23:06:46.248Z,26.49
2023-08-15T23:09:13.778Z,26.43
2023-08-15T23:11:43.438Z,26.35
2023-08-15T23:14:10.019Z,26.39
2023-08-15T23:16:36.627Z,26.47
2023-08-15T23:19:03.205Z,26.29
2023-08-15T23:21:29.836Z,26.35
2023-08-15T23:23:57.517Z,26.32
2023-08-15T23:26:24.192Z,26.36
2023-08-15T23:28:50.796Z,26.34
2023-08-15T23:31:18.638Z,26.37
2023-08-15T23:33:46.394Z,26.31
2023-08-15T23:36:13.446Z,26.30
2023-08-15T23:38:40.151Z,26.35
2023-08-15T23:41:06.782Z,26.35
2023-08-15T23:43:33.348Z,26.29
2023-08-15T23:46:00.003Z,26.21
2023-08-15T23:48:26.586Z,26.23
2023-08-15T23:50:53.178Z,26.17
2023-08-15T23:53:19.767Z,26.24
2023-08-15T23:55:46.340Z,26.28
2023-08-15T23:58:12.969Z,26.22
